sensor_id;sensor_type;location;lat;lon;timestamp;P1;durP1;ratioP1;P2;durP2;ratioP2
8187;SDS011;4135;49.184;9.722;2022-08-24T00:00:15;5.50;;;2.63;;
8187;SDS011;4135;49.184;9.722;2022-08-24T00:02:48;3.55;;;2.15;;
8187;SDS011;4135;49.184;9.722;2022-08-24T00:05:18;3.20;;;2.40;;
8187;SDS011;4135;49.184;9.722;2022-08-24T00:07:49;2.50;;;1.90;;
8187;SDS011;4135;49.184;9.722;2022-08-24T00:10:19;2.45;;;1.88;;
8187;SDS011;4135;49.184;9.722;2022-08-24T00:12:49;5.78;;;2.35;;
8187;SDS011;4135;49.184;9.722;2022-08-24T00:15:18;2.95;;;1.92;;
8187;SDS011;4135;49.184;9.722;2022-08-24T00:17:49;3.08;;;2.03;;
8187;SDS011;4135;49.184;9.722;2022-08-24T00:20:18;6.00;;;1.90;;
8187;SDS011;4135;49.184;9.722;2022-08-24T00:22:48;5.85;;;2.10;;
8187;SDS011;4135;49.184;9.722;2022-08-24T00:25:17;4.22;;;2.15;;
8187;SDS011;4135;49.184;9.722;2022-08-24T00:27:48;4.28;;;2.05;;
8187;SDS011;4135;49.184;9.722;2022-08-24T00:30:18;2.90;;;1.67;;
8187;SDS011;4135;49.184;9.722;2022-08-24T00:32:49;2.30;;;1.50;;
8187;SDS011;4135;49.184;9.722;2022-08-24T00:35:19;4.20;;;1.70;;
8187;SDS011;4135;49.184;9.722;2022-08-24T00:37:50;4.18;;;1.80;;
8187;SDS011;4135;49.184;9.722;2022-08-24T00:40:28;3.25;;;1.75;;
8187;SDS011;4135;49.184;9.722;2022-08-24T00:43:02;6.22;;;2.17;;
8187;SDS011;4135;49.184;9.722;2022-08-24T00:45:45;2.90;;;2.15;;
8187;SDS011;4135;49.184;9.722;2022-08-24T00:48:21;5.32;;;2.22;;
8187;SDS011;4135;49.184;9.722;2022-08-24T00:50:58;1.70;;;1.67;;
8187;SDS011;4135;49.184;9.722;2022-08-24T00:53:42;4.30;;;2.22;;
8187;SDS011;4135;49.184;9.722;2022-08-24T00:56:23;5.18;;;2.08;;
8187;SDS011;4135;49.184;9.722;2022-08-24T00:59:03;4.82;;;1.55;;
8187;SDS011;4135;49.184;9.722;2022-08-24T01:01:36;3.75;;;1.80;;
8187;SDS011;4135;49.184;9.722;2022-08-24T01:04:07;5.20;;;2.00;;
8187;SDS011;4135;49.184;9.722;2022-08-24T01:06:43;5.35;;;1.90;;
8187;SDS011;4135;49.184;9.722;2022-08-24T01:09:14;4.50;;;1.80;;
8187;SDS011;4135;49.184;9.722;2022-08-24T01:11:44;5.30;;;2.13;;
8187;SDS011;4135;49.184;9.722;2022-08-24T01:14:15;3.15;;;2.08;;
8187;SDS011;4135;49.184;9.722;2022-08-24T01:16:47;5.38;;;1.70;;
8187;SDS011;4135;49.184;9.722;2022-08-24T01:19:42;2.35;;;1.75;;
8187;SDS011;4135;49.184;9.722;2022-08-24T01:24:57;4.15;;;1.88;;
8187;SDS011;4135;49.184;9.722;2022-08-24T01:27:27;2.83;;;1.83;;
8187;SDS011;4135;49.184;9.722;2022-08-24T01:29:58;2.95;;;2.08;;
8187;SDS011;4135;49.184;9.722;2022-08-24T01:32:30;3.88;;;1.63;;
8187;SDS011;4135;49.184;9.722;2022-08-24T01:35:00;4.57;;;2.05;;
8187;SDS011;4135;49.184;9.722;2022-08-24T01:37:30;4.60;;;2.00;;
8187;SDS011;4135;49.184;9.722;2022-08-24T01:40:02;2.33;;;1.35;;
8187;SDS011;4135;49.184;9.722;2022-08-24T01:42:34;2.05;;;1.90;;
8187;SDS011;4135;49.184;9.722;2022-08-24T01:45:05;2.97;;;1.95;;
8187;SDS011;4135;49.184;9.722;2022-08-24T01:47:35;2.53;;;1.85;;
8187;SDS011;4135;49.184;9.722;2022-08-24T01:50:04;2.40;;;1.55;;
8187;SDS011;4135;49.184;9.722;2022-08-24T01:52:34;2.00;;;1.48;;
8187;SDS011;4135;49.184;9.722;2022-08-24T01:55:08;3.58;;;1.60;;
8187;SDS011;4135;49.184;9.722;2022-08-24T01:57:39;3.42;;;1.75;;
8187;SDS011;4135;49.184;9.722;2022-08-24T02:00:10;2.28;;;1.88;;
8187;SDS011;4135;49.184;9.722;2022-08-24T02:02:45;3.58;;;1.60;;
8187;SDS011;4135;49.184;9.722;2022-08-24T02:05:15;2.67;;;1.42;;
8187;SDS011;4135;49.184;9.722;2022-08-24T02:07:46;2.58;;;1.77;;
8187;SDS011;4135;49.184;9.722;2022-08-24T02:10:16;3.00;;;1.88;;
8187;SDS011;4135;49.184;9.722;2022-08-24T02:12:46;4.28;;;1.85;;
8187;SDS011;4135;49.184;9.722;2022-08-24T02:15:30;3.00;;;1.50;;
8187;SDS011;4135;49.184;9.722;2022-08-24T02:18:09;2.58;;;1.80;;
8187;SDS011;4135;49.184;9.722;2022-08-24T02:20:40;4.38;;;1.77;;
8187;SDS011;4135;49.184;9.722;2022-08-24T02:23:09;4.22;;;1.50;;
8187;SDS011;4135;49.184;9.722;2022-08-24T02:25:39;2.70;;;1.40;;
8187;SDS011;4135;49.184;9.722;2022-08-24T02:28:08;5.05;;;2.05;;
8187;SDS011;4135;49.184;9.722;2022-08-24T02:30:38;3.10;;;1.83;;
8187;SDS011;4135;49.184;9.722;2022-08-24T02:33:08;3.83;;;1.65;;
8187;SDS011;4135;49.184;9.722;2022-08-24T02:35:37;3.03;;;1.58;;
8187;SDS011;4135;49.184;9.722;2022-08-24T02:38:07;2.70;;;1.83;;
8187;SDS011;4135;49.184;9.722;2022-08-24T02:40:38;2.08;;;1.70;;
8187;SDS011;4135;49.184;9.722;2022-08-24T02:43:07;2.75;;;2.00;;
8187;SDS011;4135;49.184;9.722;2022-08-24T02:45:42;2.85;;;2.05;;
8187;SDS011;4135;49.184;9.722;2022-08-24T02:48:13;3.47;;;1.80;;
8187;SDS011;4135;49.184;9.722;2022-08-24T02:50:44;4.75;;;2.08;;
8187;SDS011;4135;49.184;9.722;2022-08-24T02:53:16;2.97;;;1.75;;
8187;SDS011;4135;49.184;9.722;2022-08-24T02:55:47;3.13;;;1.85;;
8187;SDS011;4135;49.184;9.722;2022-08-24T02:58:17;4.35;;;2.00;;
8187;SDS011;4135;49.184;9.722;2022-08-24T03:00:47;6.10;;;2.25;;
8187;SDS011;4135;49.184;9.722;2022-08-24T03:03:16;2.38;;;1.65;;
8187;SDS011;4135;49.184;9.722;2022-08-24T03:05:46;3.75;;;2.33;;
8187;SDS011;4135;49.184;9.722;2022-08-24T03:08:15;1.98;;;1.70;;
8187;SDS011;4135;49.184;9.722;2022-08-24T03:10:46;2.90;;;1.88;;
8187;SDS011;4135;49.184;9.722;2022-08-24T03:13:16;3.97;;;2.20;;
8187;SDS011;4135;49.184;9.722;2022-08-24T03:15:46;4.25;;;2.30;;
8187;SDS011;4135;49.184;9.722;2022-08-24T03:18:15;8.50;;;1.90;;
8187;SDS011;4135;49.184;9.722;2022-08-24T03:20:45;2.53;;;1.60;;
8187;SDS011;4135;49.184;9.722;2022-08-24T03:23:14;3.65;;;1.70;;
8187;SDS011;4135;49.184;9.722;2022-08-24T03:25:44;2.65;;;1.85;;
8187;SDS011;4135;49.184;9.722;2022-08-24T03:28:13;4.97;;;2.20;;
8187;SDS011;4135;49.184;9.722;2022-08-24T03:30:43;5.00;;;2.55;;
8187;SDS011;4135;49.184;9.722;2022-08-24T03:33:13;5.13;;;2.30;;
8187;SDS011;4135;49.184;9.722;2022-08-24T03:35:42;3.03;;;2.10;;
8187;SDS011;4135;49.184;9.722;2022-08-24T03:38:12;2.90;;;2.10;;
8187;SDS011;4135;49.184;9.722;2022-08-24T03:40:42;4.40;;;1.63;;
8187;SDS011;4135;49.184;9.722;2022-08-24T03:43:11;2.72;;;1.83;;
8187;SDS011;4135;49.184;9.722;2022-08-24T03:46:01;5.82;;;2.50;;
8187;SDS011;4135;49.184;9.722;2022-08-24T03:48:35;6.75;;;2.47;;
8187;SDS011;4135;49.184;9.722;2022-08-24T03:51:05;4.05;;;2.70;;
8187;SDS011;4135;49.184;9.722;2022-08-24T03:53:38;5.13;;;2.03;;
8187;SDS011;4135;49.184;9.722;2022-08-24T03:56:08;1.90;;;1.80;;
8187;SDS011;4135;49.184;9.722;2022-08-24T03:58:39;4.03;;;2.25;;
8187;SDS011;4135;49.184;9.722;2022-08-24T04:01:12;5.28;;;2.50;;
8187;SDS011;4135;49.184;9.722;2022-08-24T04:03:42;3.92;;;2.45;;
8187;SDS011;4135;49.184;9.722;2022-08-24T04:06:14;4.07;;;2.38;;
8187;SDS011;4135;49.184;9.722;2022-08-24T04:08:45;5.15;;;2.75;;
8187;SDS011;4135;49.184;9.722;2022-08-24T04:11:19;5.05;;;2.28;;
8187;SDS011;4135;49.184;9.722;2022-08-24T04:13:51;4.28;;;2.17;;
8187;SDS011;4135;49.184;9.722;2022-08-24T04:16:24;6.30;;;2.80;;
8187;SDS011;4135;49.184;9.722;2022-08-24T04:18:55;5.35;;;3.10;;
8187;SDS011;4135;49.184;9.722;2022-08-24T04:21:26;4.85;;;2.80;;
8187;SDS011;4135;49.184;9.722;2022-08-24T04:23:58;5.18;;;2.40;;
8187;SDS011;4135;49.184;9.722;2022-08-24T04:26:29;4.57;;;2.72;;
8187;SDS011;4135;49.184;9.722;2022-08-24T04:28:59;6.57;;;3.15;;
8187;SDS011;4135;49.184;9.722;2022-08-24T04:31:30;6.38;;;3.55;;
8187;SDS011;4135;49.184;9.722;2022-08-24T04:33:59;4.57;;;3.15;;
8187;SDS011;4135;49.184;9.722;2022-08-24T04:36:29;4.10;;;2.95;;
8187;SDS011;4135;49.184;9.722;2022-08-24T04:38:59;12.50;;;3.33;;
8187;SDS011;4135;49.184;9.722;2022-08-24T04:41:29;10.07;;;4.28;;
8187;SDS011;4135;49.184;9.722;2022-08-24T04:43:59;9.27;;;3.10;;
8187;SDS011;4135;49.184;9.722;2022-08-24T04:46:29;6.28;;;3.30;;
8187;SDS011;4135;49.184;9.722;2022-08-24T04:48:58;7.85;;;3.20;;
8187;SDS011;4135;49.184;9.722;2022-08-24T04:51:28;5.13;;;3.13;;
8187;SDS011;4135;49.184;9.722;2022-08-24T04:53:57;6.55;;;3.63;;
8187;SDS011;4135;49.184;9.722;2022-08-24T04:56:27;8.48;;;3.30;;
8187;SDS011;4135;49.184;9.722;2022-08-24T04:58:56;5.85;;;3.58;;
8187;SDS011;4135;49.184;9.722;2022-08-24T05:01:27;8.38;;;3.85;;
8187;SDS011;4135;49.184;9.722;2022-08-24T05:03:58;6.85;;;3.38;;
8187;SDS011;4135;49.184;9.722;2022-08-24T05:06:29;10.05;;;3.70;;
8187;SDS011;4135;49.184;9.722;2022-08-24T05:09:01;11.98;;;3.65;;
8187;SDS011;4135;49.184;9.722;2022-08-24T05:11:33;5.43;;;3.75;;
8187;SDS011;4135;49.184;9.722;2022-08-24T05:14:05;5.70;;;3.35;;
8187;SDS011;4135;49.184;9.722;2022-08-24T05:16:35;5.78;;;3.28;;
8187;SDS011;4135;49.184;9.722;2022-08-24T05:19:05;8.18;;;3.65;;
8187;SDS011;4135;49.184;9.722;2022-08-24T05:21:35;4.93;;;3.80;;
8187;SDS011;4135;49.184;9.722;2022-08-24T05:24:04;7.70;;;3.47;;
8187;SDS011;4135;49.184;9.722;2022-08-24T05:26:34;5.68;;;3.10;;
8187;SDS011;4135;49.184;9.722;2022-08-24T05:29:03;3.78;;;3.05;;
8187;SDS011;4135;49.184;9.722;2022-08-24T05:31:33;6.72;;;3.08;;
8187;SDS011;4135;49.184;9.722;2022-08-24T05:34:03;8.10;;;3.42;;
8187;SDS011;4135;49.184;9.722;2022-08-24T05:36:34;10.98;;;3.85;;
8187;SDS011;4135;49.184;9.722;2022-08-24T05:39:07;6.45;;;3.85;;
8187;SDS011;4135;49.184;9.722;2022-08-24T05:41:39;4.22;;;3.00;;
8187;SDS011;4135;49.184;9.722;2022-08-24T05:44:11;6.13;;;3.63;;
8187;SDS011;4135;49.184;9.722;2022-08-24T05:46:42;8.13;;;4.13;;
8187;SDS011;4135;49.184;9.722;2022-08-24T05:49:12;6.38;;;4.10;;
8187;SDS011;4135;49.184;9.722;2022-08-24T05:51:41;9.70;;;5.05;;
8187;SDS011;4135;49.184;9.722;2022-08-24T05:54:11;8.30;;;4.50;;
8187;SDS011;4135;49.184;9.722;2022-08-24T05:56:42;5.95;;;3.60;;
8187;SDS011;4135;49.184;9.722;2022-08-24T05:59:12;7.30;;;4.00;;
8187;SDS011;4135;49.184;9.722;2022-08-24T06:01:43;5.70;;;3.75;;
8187;SDS011;4135;49.184;9.722;2022-08-24T06:04:12;8.43;;;3.92;;
8187;SDS011;4135;49.184;9.722;2022-08-24T06:06:42;8.65;;;3.65;;
8187;SDS011;4135;49.184;9.722;2022-08-24T06:09:11;5.63;;;3.53;;
8187;SDS011;4135;49.184;9.722;2022-08-24T06:11:41;7.35;;;3.13;;
8187;SDS011;4135;49.184;9.722;2022-08-24T06:14:13;6.10;;;3.15;;
8187;SDS011;4135;49.184;9.722;2022-08-24T06:16:45;5.75;;;3.08;;
8187;SDS011;4135;49.184;9.722;2022-08-24T06:19:16;6.03;;;3.35;;
8187;SDS011;4135;49.184;9.722;2022-08-24T06:21:48;5.00;;;3.03;;
8187;SDS011;4135;49.184;9.722;2022-08-24T06:24:20;4.35;;;3.10;;
8187;SDS011;4135;49.184;9.722;2022-08-24T06:27:13;5.05;;;3.00;;
8187;SDS011;4135;49.184;9.722;2022-08-24T06:29:51;3.85;;;2.78;;
8187;SDS011;4135;49.184;9.722;2022-08-24T06:32:23;9.57;;;3.35;;
8187;SDS011;4135;49.184;9.722;2022-08-24T06:34:54;5.72;;;3.20;;
8187;SDS011;4135;49.184;9.722;2022-08-24T06:37:25;4.25;;;3.03;;
8187;SDS011;4135;49.184;9.722;2022-08-24T06:39:56;3.90;;;2.60;;
8187;SDS011;4135;49.184;9.722;2022-08-24T06:42:26;3.40;;;2.67;;
8187;SDS011;4135;49.184;9.722;2022-08-24T06:44:57;12.02;;;3.30;;
8187;SDS011;4135;49.184;9.722;2022-08-24T06:47:26;2.90;;;2.63;;
8187;SDS011;4135;49.184;9.722;2022-08-24T06:49:59;4.05;;;2.40;;
8187;SDS011;4135;49.184;9.722;2022-08-24T06:52:29;3.85;;;2.80;;
8187;SDS011;4135;49.184;9.722;2022-08-24T06:54:59;3.30;;;2.50;;
8187;SDS011;4135;49.184;9.722;2022-08-24T06:57:29;5.25;;;2.83;;
8187;SDS011;4135;49.184;9.722;2022-08-24T06:59:59;3.63;;;2.28;;
8187;SDS011;4135;49.184;9.722;2022-08-24T07:02:29;3.83;;;2.63;;
8187;SDS011;4135;49.184;9.722;2022-08-24T07:04:59;3.78;;;2.55;;
8187;SDS011;4135;49.184;9.722;2022-08-24T07:07:28;5.03;;;2.45;;
8187;SDS011;4135;49.184;9.722;2022-08-24T07:09:58;4.85;;;2.67;;
8187;SDS011;4135;49.184;9.722;2022-08-24T07:12:29;5.10;;;2.85;;
8187;SDS011;4135;49.184;9.722;2022-08-24T07:14:58;4.45;;;3.25;;
8187;SDS011;4135;49.184;9.722;2022-08-24T07:17:28;5.07;;;3.05;;
8187;SDS011;4135;49.184;9.722;2022-08-24T07:19:57;3.50;;;2.90;;
8187;SDS011;4135;49.184;9.722;2022-08-24T07:22:27;5.78;;;2.67;;
8187;SDS011;4135;49.184;9.722;2022-08-24T07:24:56;5.22;;;3.28;;
8187;SDS011;4135;49.184;9.722;2022-08-24T07:27:26;7.53;;;2.55;;
8187;SDS011;4135;49.184;9.722;2022-08-24T07:29:55;5.13;;;2.30;;
8187;SDS011;4135;49.184;9.722;2022-08-24T07:32:25;5.50;;;2.53;;
8187;SDS011;4135;49.184;9.722;2022-08-24T07:34:56;4.75;;;2.83;;
8187;SDS011;4135;49.184;9.722;2022-08-24T07:37:26;4.38;;;3.25;;
8187;SDS011;4135;49.184;9.722;2022-08-24T07:39:55;6.50;;;3.10;;
8187;SDS011;4135;49.184;9.722;2022-08-24T07:42:25;4.93;;;3.08;;
8187;SDS011;4135;49.184;9.722;2022-08-24T07:44:55;3.13;;;2.28;;
8187;SDS011;4135;49.184;9.722;2022-08-24T07:47:25;5.10;;;3.75;;
8187;SDS011;4135;49.184;9.722;2022-08-24T07:49:55;2.97;;;2.78;;
8187;SDS011;4135;49.184;9.722;2022-08-24T07:52:24;4.25;;;2.85;;
8187;SDS011;4135;49.184;9.722;2022-08-24T07:54:54;5.35;;;2.80;;
8187;SDS011;4135;49.184;9.722;2022-08-24T07:57:24;2.80;;;2.60;;
8187;SDS011;4135;49.184;9.722;2022-08-24T07:59:53;4.30;;;3.03;;
8187;SDS011;4135;49.184;9.722;2022-08-24T08:02:23;4.78;;;3.30;;
8187;SDS011;4135;49.184;9.722;2022-08-24T08:04:55;4.50;;;3.05;;
8187;SDS011;4135;49.184;9.722;2022-08-24T08:07:25;3.30;;;2.80;;
8187;SDS011;4135;49.184;9.722;2022-08-24T08:09:54;4.85;;;3.00;;
8187;SDS011;4135;49.184;9.722;2022-08-24T08:12:24;3.78;;;3.13;;
8187;SDS011;4135;49.184;9.722;2022-08-24T08:14:53;7.05;;;3.60;;
8187;SDS011;4135;49.184;9.722;2022-08-24T08:17:23;3.83;;;3.15;;
8187;SDS011;4135;49.184;9.722;2022-08-24T08:19:53;6.20;;;3.05;;
8187;SDS011;4135;49.184;9.722;2022-08-24T08:22:22;4.63;;;3.25;;
8187;SDS011;4135;49.184;9.722;2022-08-24T08:25:10;7.05;;;3.10;;
8187;SDS011;4135;49.184;9.722;2022-08-24T08:27:40;4.85;;;3.33;;
8187;SDS011;4135;49.184;9.722;2022-08-24T08:30:09;2.75;;;2.60;;
8187;SDS011;4135;49.184;9.722;2022-08-24T08:32:39;4.50;;;3.13;;
8187;SDS011;4135;49.184;9.722;2022-08-24T08:35:09;4.72;;;3.38;;
8187;SDS011;4135;49.184;9.722;2022-08-24T08:37:39;4.15;;;2.97;;
8187;SDS011;4135;49.184;9.722;2022-08-24T08:40:09;8.07;;;3.13;;
8187;SDS011;4135;49.184;9.722;2022-08-24T08:42:47;4.10;;;2.80;;
8187;SDS011;4135;49.184;9.722;2022-08-24T08:45:34;4.18;;;2.67;;
8187;SDS011;4135;49.184;9.722;2022-08-24T08:51:32;4.32;;;2.70;;
8187;SDS011;4135;49.184;9.722;2022-08-24T08:57:21;3.42;;;2.50;;
8187;SDS011;4135;49.184;9.722;2022-08-24T09:17:46;7.30;;;3.13;;
8187;SDS011;4135;49.184;9.722;2022-08-24T09:23:02;4.40;;;2.80;;
8187;SDS011;4135;49.184;9.722;2022-08-24T09:34:15;5.45;;;2.92;;
8187;SDS011;4135;49.184;9.722;2022-08-24T09:37:24;5.88;;;2.88;;
8187;SDS011;4135;49.184;9.722;2022-08-24T09:45:57;3.83;;;2.95;;
8187;SDS011;4135;49.184;9.722;2022-08-24T09:57:14;5.97;;;2.85;;
8187;SDS011;4135;49.184;9.722;2022-08-24T09:59:59;3.20;;;2.50;;
8187;SDS011;4135;49.184;9.722;2022-08-24T10:20:04;3.40;;;2.17;;
8187;SDS011;4135;49.184;9.722;2022-08-24T10:28:29;4.68;;;2.40;;
8187;SDS011;4135;49.184;9.722;2022-08-24T10:31:03;3.15;;;2.40;;
8187;SDS011;4135;49.184;9.722;2022-08-24T10:33:47;6.38;;;2.45;;
8187;SDS011;4135;49.184;9.722;2022-08-24T10:36:40;5.13;;;2.42;;
8187;SDS011;4135;49.184;9.722;2022-08-24T10:42:31;3.67;;;2.30;;
8187;SDS011;4135;49.184;9.722;2022-08-24T10:45:38;2.88;;;2.00;;
8187;SDS011;4135;49.184;9.722;2022-08-24T10:53:56;3.17;;;2.47;;
8187;SDS011;4135;49.184;9.722;2022-08-24T10:59:32;2.78;;;2.58;;
8187;SDS011;4135;49.184;9.722;2022-08-24T11:05:02;3.70;;;2.83;;
8187;SDS011;4135;49.184;9.722;2022-08-24T11:07:36;2.65;;;1.98;;
8187;SDS011;4135;49.184;9.722;2022-08-24T11:10:25;3.22;;;2.40;;
8187;SDS011;4135;49.184;9.722;2022-08-24T11:13:13;3.30;;;2.50;;
8187;SDS011;4135;49.184;9.722;2022-08-24T11:15:51;3.90;;;2.28;;
8187;SDS011;4135;49.184;9.722;2022-08-24T11:18:46;8.82;;;2.85;;
8187;SDS011;4135;49.184;9.722;2022-08-24T11:21:40;2.80;;;1.77;;
8187;SDS011;4135;49.184;9.722;2022-08-24T11:24:27;5.25;;;2.67;;
8187;SDS011;4135;49.184;9.722;2022-08-24T11:27:16;3.00;;;2.38;;
8187;SDS011;4135;49.184;9.722;2022-08-24T11:29:55;3.75;;;2.90;;
8187;SDS011;4135;49.184;9.722;2022-08-24T11:32:29;3.30;;;2.78;;
8187;SDS011;4135;49.184;9.722;2022-08-24T11:35:03;3.88;;;2.50;;
8187;SDS011;4135;49.184;9.722;2022-08-24T11:37:37;3.05;;;2.33;;
8187;SDS011;4135;49.184;9.722;2022-08-24T11:40:07;3.58;;;2.28;;
8187;SDS011;4135;49.184;9.722;2022-08-24T11:42:52;7.57;;;2.63;;
8187;SDS011;4135;49.184;9.722;2022-08-24T11:56:28;4.07;;;1.73;;
8187;SDS011;4135;49.184;9.722;2022-08-24T12:02:09;3.60;;;2.22;;
8187;SDS011;4135;49.184;9.722;2022-08-24T12:07:47;3.67;;;2.30;;
8187;SDS011;4135;49.184;9.722;2022-08-24T12:11:02;3.30;;;1.73;;
8187;SDS011;4135;49.184;9.722;2022-08-24T12:14:01;3.25;;;1.95;;
8187;SDS011;4135;49.184;9.722;2022-08-24T12:19:14;4.95;;;2.30;;
8187;SDS011;4135;49.184;9.722;2022-08-24T12:21:50;4.00;;;1.80;;
8187;SDS011;4135;49.184;9.722;2022-08-24T12:24:28;2.70;;;2.20;;
8187;SDS011;4135;49.184;9.722;2022-08-24T12:27:03;1.80;;;1.77;;
8187;SDS011;4135;49.184;9.722;2022-08-24T12:32:25;4.05;;;2.13;;
8187;SDS011;4135;49.184;9.722;2022-08-24T12:35:08;4.10;;;2.20;;
8187;SDS011;4135;49.184;9.722;2022-08-24T12:37:56;5.53;;;2.10;;
8187;SDS011;4135;49.184;9.722;2022-08-24T12:40:55;2.80;;;1.88;;
8187;SDS011;4135;49.184;9.722;2022-08-24T12:43:44;2.35;;;1.67;;
8187;SDS011;4135;49.184;9.722;2022-08-24T12:46:19;3.15;;;1.77;;
8187;SDS011;4135;49.184;9.722;2022-08-24T12:48:53;3.10;;;1.90;;
8187;SDS011;4135;49.184;9.722;2022-08-24T13:00:25;2.13;;;1.67;;
8187;SDS011;4135;49.184;9.722;2022-08-24T13:03:02;2.03;;;1.45;;
8187;SDS011;4135;49.184;9.722;2022-08-24T13:05:44;4.05;;;2.15;;
8187;SDS011;4135;49.184;9.722;2022-08-24T13:08:19;2.47;;;1.92;;
8187;SDS011;4135;49.184;9.722;2022-08-24T13:11:04;3.53;;;2.22;;
8187;SDS011;4135;49.184;9.722;2022-08-24T13:16:09;2.47;;;1.73;;
8187;SDS011;4135;49.184;9.722;2022-08-24T13:19:08;2.80;;;1.48;;
8187;SDS011;4135;49.184;9.722;2022-08-24T13:21:45;2.90;;;2.10;;
8187;SDS011;4135;49.184;9.722;2022-08-24T13:29:48;3.53;;;1.90;;
8187;SDS011;4135;49.184;9.722;2022-08-24T13:32:29;3.55;;;1.90;;
8187;SDS011;4135;49.184;9.722;2022-08-24T13:41:01;2.20;;;1.75;;
8187;SDS011;4135;49.184;9.722;2022-08-24T13:44:00;2.40;;;1.73;;
8187;SDS011;4135;49.184;9.722;2022-08-24T13:52:05;2.70;;;2.00;;
8187;SDS011;4135;49.184;9.722;2022-08-24T13:55:02;12.05;;;2.20;;
8187;SDS011;4135;49.184;9.722;2022-08-24T13:57:43;2.78;;;1.85;;
8187;SDS011;4135;49.184;9.722;2022-08-24T14:05:53;3.95;;;1.60;;
8187;SDS011;4135;49.184;9.722;2022-08-24T14:11:58;2.58;;;1.88;;
8187;SDS011;4135;49.184;9.722;2022-08-24T14:14:43;2.10;;;1.38;;
8187;SDS011;4135;49.184;9.722;2022-08-24T14:17:18;3.15;;;1.77;;
8187;SDS011;4135;49.184;9.722;2022-08-24T14:23:17;3.67;;;1.92;;
8187;SDS011;4135;49.184;9.722;2022-08-24T14:37:21;3.08;;;1.60;;
8187;SDS011;4135;49.184;9.722;2022-08-24T14:42:56;2.58;;;1.70;;
8187;SDS011;4135;49.184;9.722;2022-08-24T15:09:18;3.10;;;1.90;;
8187;SDS011;4135;49.184;9.722;2022-08-24T15:11:49;3.55;;;1.95;;
8187;SDS011;4135;49.184;9.722;2022-08-24T15:17:20;2.80;;;1.63;;
8187;SDS011;4135;49.184;9.722;2022-08-24T15:28:09;2.55;;;1.92;;
8187;SDS011;4135;49.184;9.722;2022-08-24T15:30:51;3.60;;;2.05;;
8187;SDS011;4135;49.184;9.722;2022-08-24T15:33:28;2.13;;;1.30;;
8187;SDS011;4135;49.184;9.722;2022-08-24T15:36:03;5.93;;;1.95;;
8187;SDS011;4135;49.184;9.722;2022-08-24T15:38:36;1.13;;;1.00;;
8187;SDS011;4135;49.184;9.722;2022-08-24T15:41:18;1.95;;;1.70;;
8187;SDS011;4135;49.184;9.722;2022-08-24T15:44:11;2.47;;;1.65;;
8187;SDS011;4135;49.184;9.722;2022-08-24T15:46:49;6.82;;;1.85;;
8187;SDS011;4135;49.184;9.722;2022-08-24T15:49:32;2.95;;;1.73;;
8187;SDS011;4135;49.184;9.722;2022-08-24T15:52:05;3.67;;;1.65;;
8187;SDS011;4135;49.184;9.722;2022-08-24T15:54:39;2.22;;;1.63;;
8187;SDS011;4135;49.184;9.722;2022-08-24T15:59:46;3.42;;;2.22;;
8187;SDS011;4135;49.184;9.722;2022-08-24T16:02:27;3.25;;;1.80;;
8187;SDS011;4135;49.184;9.722;2022-08-24T16:05:09;3.70;;;2.42;;
8187;SDS011;4135;49.184;9.722;2022-08-24T16:13:12;3.05;;;2.00;;
8187;SDS011;4135;49.184;9.722;2022-08-24T16:15:49;3.42;;;1.90;;
8187;SDS011;4135;49.184;9.722;2022-08-24T16:18:19;5.03;;;2.15;;
8187;SDS011;4135;49.184;9.722;2022-08-24T16:20:49;2.80;;;2.10;;
8187;SDS011;4135;49.184;9.722;2022-08-24T16:23:23;2.30;;;2.10;;
8187;SDS011;4135;49.184;9.722;2022-08-24T16:28:55;3.25;;;1.90;;
8187;SDS011;4135;49.184;9.722;2022-08-24T16:31:46;4.22;;;2.28;;
8187;SDS011;4135;49.184;9.722;2022-08-24T16:34:29;2.65;;;1.90;;
8187;SDS011;4135;49.184;9.722;2022-08-24T16:37:00;8.00;;;2.10;;
8187;SDS011;4135;49.184;9.722;2022-08-24T16:39:32;4.93;;;1.70;;
8187;SDS011;4135;49.184;9.722;2022-08-24T16:42:03;2.72;;;1.88;;
8187;SDS011;4135;49.184;9.722;2022-08-24T16:44:38;2.50;;;2.10;;
8187;SDS011;4135;49.184;9.722;2022-08-24T16:47:09;2.15;;;2.03;;
8187;SDS011;4135;49.184;9.722;2022-08-24T16:49:39;3.45;;;2.42;;
8187;SDS011;4135;49.184;9.722;2022-08-24T16:52:09;3.40;;;2.10;;
8187;SDS011;4135;49.184;9.722;2022-08-24T16:54:39;2.85;;;1.98;;
8187;SDS011;4135;49.184;9.722;2022-08-24T16:57:10;2.80;;;2.35;;
8187;SDS011;4135;49.184;9.722;2022-08-24T16:59:46;2.63;;;2.33;;
8187;SDS011;4135;49.184;9.722;2022-08-24T17:02:17;3.33;;;2.35;;
8187;SDS011;4135;49.184;9.722;2022-08-24T17:04:48;5.82;;;2.30;;
8187;SDS011;4135;49.184;9.722;2022-08-24T17:07:19;7.15;;;2.03;;
8187;SDS011;4135;49.184;9.722;2022-08-24T17:09:52;3.05;;;2.35;;
8187;SDS011;4135;49.184;9.722;2022-08-24T17:12:23;4.60;;;2.60;;
8187;SDS011;4135;49.184;9.722;2022-08-24T17:14:54;5.55;;;2.30;;
8187;SDS011;4135;49.184;9.722;2022-08-24T17:17:24;3.95;;;2.33;;
8187;SDS011;4135;49.184;9.722;2022-08-24T17:19:53;4.88;;;2.30;;
8187;SDS011;4135;49.184;9.722;2022-08-24T17:22:24;3.45;;;2.20;;
8187;SDS011;4135;49.184;9.722;2022-08-24T17:24:53;6.93;;;2.60;;
8187;SDS011;4135;49.184;9.722;2022-08-24T17:27:25;4.60;;;2.63;;
8187;SDS011;4135;49.184;9.722;2022-08-24T17:29:59;3.20;;;2.70;;
8187;SDS011;4135;49.184;9.722;2022-08-24T17:32:29;3.17;;;2.35;;
8187;SDS011;4135;49.184;9.722;2022-08-24T17:34:59;6.88;;;2.67;;
8187;SDS011;4135;49.184;9.722;2022-08-24T17:37:31;2.47;;;2.28;;
8187;SDS011;4135;49.184;9.722;2022-08-24T17:40:00;3.60;;;2.53;;
8187;SDS011;4135;49.184;9.722;2022-08-24T17:42:32;2.97;;;2.40;;
8187;SDS011;4135;49.184;9.722;2022-08-24T17:45:02;4.20;;;2.45;;
8187;SDS011;4135;49.184;9.722;2022-08-24T17:47:32;4.18;;;2.72;;
8187;SDS011;4135;49.184;9.722;2022-08-24T17:50:02;7.50;;;3.00;;
8187;SDS011;4135;49.184;9.722;2022-08-24T17:52:33;4.38;;;2.65;;
8187;SDS011;4135;49.184;9.722;2022-08-24T17:55:03;4.53;;;2.50;;
8187;SDS011;4135;49.184;9.722;2022-08-24T17:57:34;4.70;;;3.15;;
8187;SDS011;4135;49.184;9.722;2022-08-24T18:00:05;4.78;;;2.58;;
8187;SDS011;4135;49.184;9.722;2022-08-24T18:02:37;3.92;;;2.63;;
8187;SDS011;4135;49.184;9.722;2022-08-24T18:05:07;6.15;;;2.70;;
8187;SDS011;4135;49.184;9.722;2022-08-24T18:07:39;4.30;;;3.28;;
8187;SDS011;4135;49.184;9.722;2022-08-24T18:10:14;5.20;;;3.00;;
8187;SDS011;4135;49.184;9.722;2022-08-24T18:12:46;3.58;;;2.80;;
8187;SDS011;4135;49.184;9.722;2022-08-24T18:15:16;3.53;;;2.90;;
8187;SDS011;4135;49.184;9.722;2022-08-24T18:17:47;4.13;;;2.50;;
8187;SDS011;4135;49.184;9.722;2022-08-24T18:20:20;3.85;;;2.65;;
8187;SDS011;4135;49.184;9.722;2022-08-24T18:22:52;4.28;;;2.70;;
8187;SDS011;4135;49.184;9.722;2022-08-24T18:25:22;4.18;;;2.60;;
8187;SDS011;4135;49.184;9.722;2022-08-24T18:27:53;5.47;;;2.90;;
8187;SDS011;4135;49.184;9.722;2022-08-24T18:30:25;3.33;;;2.97;;
8187;SDS011;4135;49.184;9.722;2022-08-24T18:32:57;6.30;;;2.92;;
8187;SDS011;4135;49.184;9.722;2022-08-24T18:35:29;5.05;;;2.92;;
8187;SDS011;4135;49.184;9.722;2022-08-24T18:37:59;4.43;;;2.67;;
8187;SDS011;4135;49.184;9.722;2022-08-24T18:40:29;5.10;;;2.90;;
8187;SDS011;4135;49.184;9.722;2022-08-24T18:42:58;3.83;;;3.05;;
8187;SDS011;4135;49.184;9.722;2022-08-24T18:45:30;3.08;;;2.88;;
8187;SDS011;4135;49.184;9.722;2022-08-24T18:48:02;5.80;;;2.60;;
8187;SDS011;4135;49.184;9.722;2022-08-24T18:50:32;3.80;;;3.20;;
8187;SDS011;4135;49.184;9.722;2022-08-24T18:53:02;4.32;;;3.00;;
8187;SDS011;4135;49.184;9.722;2022-08-24T18:55:31;5.03;;;3.40;;
8187;SDS011;4135;49.184;9.722;2022-08-24T18:58:01;3.53;;;2.97;;
8187;SDS011;4135;49.184;9.722;2022-08-24T19:00:32;4.93;;;3.35;;
8187;SDS011;4135;49.184;9.722;2022-08-24T19:03:03;3.30;;;2.90;;
8187;SDS011;4135;49.184;9.722;2022-08-24T19:05:35;3.28;;;3.03;;
8187;SDS011;4135;49.184;9.722;2022-08-24T19:08:06;5.22;;;3.47;;
8187;SDS011;4135;49.184;9.722;2022-08-24T19:10:35;3.92;;;3.35;;
8187;SDS011;4135;49.184;9.722;2022-08-24T19:13:06;6.00;;;2.97;;
8187;SDS011;4135;49.184;9.722;2022-08-24T19:15:37;7.47;;;2.78;;
8187;SDS011;4135;49.184;9.722;2022-08-24T19:18:07;5.13;;;3.22;;
8187;SDS011;4135;49.184;9.722;2022-08-24T19:20:39;4.30;;;3.08;;
8187;SDS011;4135;49.184;9.722;2022-08-24T19:23:11;4.07;;;2.83;;
8187;SDS011;4135;49.184;9.722;2022-08-24T19:25:44;4.07;;;3.10;;
8187;SDS011;4135;49.184;9.722;2022-08-24T19:28:14;3.95;;;2.95;;